createdAt,value
2017-10-11T00:00:16.645Z,15.57
2017-10-11T00:01:16.624Z,15.61
2017-10-11T00:02:16.605Z,15.64
2017-10-11T00:03:16.272Z,15.57
2017-10-11T00:04:16.269Z,15.62
2017-10-11T00:05:16.260Z,15.57
2017-10-11T00:06:16.542Z,15.53
2017-10-11T00:07:16.270Z,15.52
2017-10-11T00:08:16.184Z,15.53
2017-10-11T00:09:16.163Z,15.5
2017-10-11T00:10:16.152Z,15.5
2017-10-11T00:11:15.802Z,15.5
2017-10-11T00:12:16.420Z,15.46
2017-10-11T00:13:16.089Z,15.58
2017-10-11T00:14:16.394Z,15.5
2017-10-11T00:15:16.384Z,15.58
2017-10-11T00:16:16.355Z,15.58
2017-10-11T00:17:16.012Z,15.53
2017-10-11T00:18:16.313Z,15.53
2017-10-11T00:19:16.303Z,15.52
2017-10-11T00:20:16.300Z,15.53
2017-10-11T00:21:15.621Z,15.67
2017-10-11T00:22:16.261Z,15.61
2017-10-11T00:23:16.257Z,15.54
2017-10-11T00:24:15.612Z,15.52
2017-10-11T00:25:16.192Z,15.54
2017-10-11T00:26:15.913Z,15.53
2017-10-11T00:27:15.874Z,15.5
2017-10-11T00:28:15.825Z,15.64
2017-10-11T00:29:15.799Z,15.57
2017-10-11T00:30:15.473Z,15.61
2017-10-11T00:31:15.861Z,15.54
2017-10-11T00:32:16.081Z,15.54
2017-10-11T00:33:15.732Z,15.6
2017-10-11T00:34:16.030Z,15.57
2017-10-11T00:35:15.681Z,15.54
2017-10-11T00:36:15.671Z,15.57
2017-10-11T00:37:15.981Z,15.46
2017-10-11T00:38:15.631Z,15.61
2017-10-11T00:39:15.622Z,15.46
2017-10-11T00:40:15.612Z,15.61
2017-10-11T00:41:15.850Z,15.5
2017-10-11T00:42:15.869Z,15.57
2017-10-11T00:43:15.594Z,15.52
2017-10-11T00:44:15.880Z,15.6
2017-10-11T00:45:15.832Z,15.53
2017-10-11T00:46:15.477Z,15.44
2017-10-11T00:47:15.780Z,15.5
2017-10-11T00:48:15.773Z,15.52
2017-10-11T00:49:15.748Z,15.57
2017-10-11T00:50:15.752Z,15.58
2017-10-11T00:51:15.723Z,15.53
2017-10-11T00:52:15.761Z,15.5
2017-10-11T00:53:15.692Z,15.53
2017-10-11T00:54:15.676Z,15.57
2017-10-11T00:55:15.332Z,15.52
2017-10-11T00:56:15.304Z,15.6
2017-10-11T00:57:15.280Z,15.52
2017-10-11T00:58:15.259Z,15.57
2017-10-11T00:59:15.259Z,15.52
2017-10-11T01:00:15.572Z,15.5
2017-10-11T01:01:15.551Z,15.54
2017-10-11T01:02:15.523Z,15.52
2017-10-11T01:03:15.181Z,15.46
2017-10-11T01:04:15.482Z,15.52
2017-10-11T01:05:14.829Z,15.49
2017-10-11T01:06:15.440Z,15.53
2017-10-11T01:07:15.111Z,15.47
2017-10-11T01:08:15.454Z,15.54
2017-10-11T01:09:15.071Z,15.47
2017-10-11T01:10:14.730Z,15.46
2017-10-11T01:11:15.274Z,15.47
2017-10-11T01:12:14.689Z,15.47
2017-10-11T01:13:15.003Z,15.44
2017-10-11T01:14:15.302Z,15.46
2017-10-11T01:15:15.293Z,15.44
2017-10-11T01:16:15.311Z,15.44
2017-10-11T01:17:14.920Z,15.44
2017-10-11T01:18:15.232Z,15.4
2017-10-11T01:19:15.213Z,15.5
2017-10-11T01:20:14.541Z,15.54
2017-10-11T01:21:14.851Z,15.35
2017-10-11T01:22:15.160Z,15.37
2017-10-11T01:23:14.810Z,15.44
2017-10-11T01:24:15.103Z,15.43
2017-10-11T01:25:14.780Z,15.46
2017-10-11T01:26:14.922Z,15.43
2017-10-11T01:27:15.075Z,15.47
2017-10-11T01:28:15.050Z,15.5
2017-10-11T01:29:14.700Z,15.46
2017-10-11T01:30:14.373Z,15.42
2017-10-11T01:31:14.667Z,15.42
2017-10-11T01:32:14.690Z,15.35
2017-10-11T01:33:14.632Z,15.27
2017-10-11T01:34:14.942Z,15.25
2017-10-11T01:35:14.273Z,15.29
2017-10-11T01:36:14.585Z,15.35
2017-10-11T01:37:14.904Z,15.34
2017-10-11T01:38:14.980Z,15.35
2017-10-11T01:39:14.201Z,15.29
2017-10-11T01:40:14.297Z,15.31
2017-10-11T01:41:14.790Z,15.27
2017-10-11T01:42:14.780Z,15.31
2017-10-11T01:43:14.441Z,15.25
2017-10-11T01:44:14.451Z,15.22
2017-10-11T01:45:14.432Z,15.13
2017-10-11T01:46:14.502Z,15.17
2017-10-11T01:47:14.377Z,15.14
2017-10-11T01:48:14.364Z,15.22
2017-10-11T01:49:14.684Z,15.07
2017-10-11T01:50:14.343Z,15.13
2017-10-11T01:51:14.304Z,15.22
2017-10-11T01:52:14.611Z,15.09
2017-10-11T01:53:14.732Z,15.2
2017-10-11T01:54:14.605Z,15.09
2017-10-11T01:55:14.221Z,15.13
2017-10-11T01:56:14.525Z,15.13
2017-10-11T01:57:14.529Z,15.13
2017-10-11T01:58:14.502Z,15.21
2017-10-11T01:59:14.491Z,15.17
2017-10-11T02:00:14.456Z,15.12
2017-10-11T02:01:14.534Z,15.12
2017-10-11T02:02:14.431Z,15.06
2017-10-11T02:03:14.404Z,15.1
2017-10-11T02:04:14.519Z,15.13
2017-10-11T02:05:14.083Z,15.12
2017-10-11T02:06:14.530Z,15.09
2017-10-11T02:07:14.375Z,15.14
2017-10-11T02:08:14.343Z,15.13
2017-10-11T02:09:14.292Z,15.21
2017-10-11T02:10:13.951Z,15.16
2017-10-11T02:11:14.263Z,15.12
2017-10-11T02:12:14.241Z,15.13
2017-10-11T02:13:13.892Z,15.14
2017-10-11T02:14:13.882Z,15.2
2017-10-11T02:15:13.957Z,15.16
2017-10-11T02:16:13.832Z,15.2
2017-10-11T02:17:14.173Z,15.2
2017-10-11T02:18:14.122Z,15.21
2017-10-11T02:19:13.792Z,15.17
2017-10-11T02:20:14.091Z,15.22
2017-10-11T02:21:14.155Z,15.09
2017-10-11T02:22:13.720Z,15.24
2017-10-11T02:23:14.143Z,15.09
2017-10-11T02:24:14.018Z,15.25
2017-10-11T02:25:13.992Z,15.22
2017-10-11T02:26:14.048Z,15.25
2017-10-11T02:27:14.051Z,15.16
2017-10-11T02:28:14.061Z,15.13
2017-10-11T02:29:13.643Z,15.09
2017-10-11T02:30:13.912Z,15.22
2017-10-11T02:31:13.878Z,15.16
2017-10-11T02:32:13.883Z,15.24
2017-10-11T02:33:13.851Z,15.09
2017-10-11T02:34:13.511Z,15.13
2017-10-11T02:35:13.485Z,15.28
2017-10-11T02:36:13.792Z,15.24
2017-10-11T02:37:13.122Z,15.12
2017-10-11T02:38:13.762Z,15.12
2017-10-11T02:39:13.421Z,15.17
2017-10-11T02:40:13.398Z,15.13
2017-10-11T02:41:13.371Z,15.14
2017-10-11T02:42:13.344Z,15.14
2017-10-11T02:43:13.334Z,15.1
2017-10-11T02:44:13.697Z,15.12
2017-10-11T02:45:13.301Z,15.21
2017-10-11T02:46:13.293Z,15.06
2017-10-11T02:47:13.266Z,15.17
2017-10-11T02:48:13.614Z,15.1
2017-10-11T02:49:13.541Z,15.14
2017-10-11T02:50:13.555Z,15.13
2017-10-11T02:51:13.191Z,15.14
2017-10-11T02:52:13.181Z,15.07
2017-10-11T02:53:13.162Z,15.07
2017-10-11T02:54:13.133Z,15.17
2017-10-11T02:55:13.446Z,15.09
2017-10-11T02:56:13.094Z,15.07
2017-10-11T02:57:13.092Z,15.14
2017-10-11T02:58:13.378Z,15.17
2017-10-11T02:59:13.380Z,15.12
2017-10-11T03:00:13.101Z,15.12
2017-10-11T03:01:13.322Z,15.09
2017-10-11T03:02:13.002Z,15.16
2017-10-11T03:03:13.291Z,15.04
2017-10-11T03:04:12.963Z,15.1
2017-10-11T03:05:12.941Z,15.12
2017-10-11T03:06:12.924Z,15.12
2017-10-11T03:07:13.228Z,15.14
2017-10-11T03:08:13.269Z,15.12
2017-10-11T03:09:12.852Z,15.13
2017-10-11T03:10:12.843Z,15.06
2017-10-11T03:11:12.814Z,15.03
2017-10-11T03:12:12.802Z,15.07
2017-10-11T03:13:12.790Z,15.06
2017-10-11T03:14:13.092Z,15.04
2017-10-11T03:15:12.743Z,15.06
2017-10-11T03:16:13.050Z,15.07
2017-10-11T03:17:13.045Z,15.12
2017-10-11T03:18:13.036Z,15.1
2017-10-11T03:19:12.780Z,15.2
2017-10-11T03:20:13.031Z,15.2
2017-10-11T03:21:12.610Z,15.14
2017-10-11T03:22:12.743Z,15.21
2017-10-11T03:23:12.962Z,15.2
2017-10-11T03:24:12.587Z,15.17
2017-10-11T03:25:12.892Z,15.14
2017-10-11T03:26:12.872Z,15.29
2017-10-11T03:27:12.521Z,15.14
2017-10-11T03:28:12.522Z,15.21
2017-10-11T03:29:12.540Z,15.22
2017-10-11T03:30:12.228Z,15.24
2017-10-11T03:31:12.931Z,15.21
2017-10-11T03:32:12.781Z,15.2
2017-10-11T03:33:12.102Z,15.21
2017-10-11T03:34:12.793Z,15.22
2017-10-11T03:35:12.762Z,15.16
2017-10-11T03:36:12.427Z,15.24
2017-10-11T03:37:12.333Z,15.17
2017-10-11T03:38:12.010Z,15.2
2017-10-11T03:39:12.362Z,15.21
2017-10-11T03:40:12.601Z,15.22
2017-10-11T03:41:12.272Z,15.25
2017-10-11T03:42:12.594Z,15.22
2017-10-11T03:43:12.646Z,15.17
2017-10-11T03:44:12.552Z,15.14
2017-10-11T03:45:12.211Z,15.13
2017-10-11T03:46:12.170Z,15.21
2017-10-11T03:47:12.160Z,15.21
2017-10-11T03:48:12.553Z,15.29
2017-10-11T03:49:12.513Z,15.27
2017-10-11T03:50:12.090Z,15.28
2017-10-11T03:51:11.766Z,15.2
2017-10-11T03:52:12.392Z,15.2
2017-10-11T03:53:12.140Z,15.17
2017-10-11T03:54:12.035Z,15.22
2017-10-11T03:55:12.338Z,15.25
2017-10-11T03:56:12.366Z,15.09
2017-10-11T03:57:12.311Z,15.22
2017-10-11T03:58:11.964Z,15.21
2017-10-11T03:59:11.599Z,15.1
2017-10-11T04:00:12.247Z,15.17
2017-10-11T04:01:11.885Z,15.25
2017-10-11T04:02:12.188Z,15.24
2017-10-11T04:03:11.900Z,15.21
2017-10-11T04:04:11.844Z,15.17
2017-10-11T04:05:12.152Z,15.22
2017-10-11T04:06:12.112Z,15.27
2017-10-11T04:07:12.092Z,15.21
2017-10-11T04:08:12.112Z,15.32
2017-10-11T04:09:12.084Z,15.24
2017-10-11T04:10:12.159Z,15.27
2017-10-11T04:11:12.039Z,15.22
2017-10-11T04:12:12.018Z,15.17
2017-10-11T04:13:11.991Z,15.21
2017-10-11T04:14:12.042Z,15.12
2017-10-11T04:15:11.970Z,15.16
2017-10-11T04:16:11.942Z,15.14
2017-10-11T04:17:11.933Z,15.12
2017-10-11T04:18:11.904Z,15.1
2017-10-11T04:19:11.890Z,15.16
2017-10-11T04:20:11.924Z,15.12
2017-10-11T04:21:11.846Z,15.16
2017-10-11T04:22:11.500Z,15.16
2017-10-11T04:23:11.813Z,15.21
2017-10-11T04:24:11.780Z,15.24
2017-10-11T04:25:11.772Z,15.21
2017-10-11T04:26:11.436Z,15.34
2017-10-11T04:27:11.420Z,15.27
2017-10-11T04:28:11.395Z,15.25
2017-10-11T04:29:11.692Z,15.13
2017-10-11T04:30:11.685Z,15.17
2017-10-11T04:31:11.348Z,15.1
2017-10-11T04:32:11.632Z,15.07
2017-10-11T04:33:11.632Z,15.04
2017-10-11T04:34:11.282Z,15.06
2017-10-11T04:35:11.598Z,15.17
2017-10-11T04:36:11.252Z,15.1
2017-10-11T04:37:10.905Z,15.03
2017-10-11T04:38:11.212Z,14.98
2017-10-11T04:39:11.190Z,15.04
2017-10-11T04:40:11.541Z,15.1
2017-10-11T04:41:10.823Z,15.07
2017-10-11T04:42:11.472Z,15.09
2017-10-11T04:43:11.124Z,15.22
2017-10-11T04:44:11.433Z,15.14
2017-10-11T04:45:11.411Z,15.17
2017-10-11T04:46:11.143Z,15.12
2017-10-11T04:47:11.038Z,15.22
2017-10-11T04:48:11.038Z,15.27
2017-10-11T04:49:11.013Z,15.27
2017-10-11T04:50:11.008Z,15.25
2017-10-11T04:51:10.971Z,15.25
2017-10-11T04:52:11.312Z,15.22
2017-10-11T04:53:10.943Z,15.17
2017-10-11T04:54:10.921Z,15.1
2017-10-11T04:55:11.238Z,15.14
2017-10-11T04:56:11.222Z,15.1
2017-10-11T04:57:11.230Z,15.13
2017-10-11T04:58:11.212Z,15.06
2017-10-11T04:59:11.142Z,15.12
2017-10-11T05:00:10.819Z,15.07
2017-10-11T05:01:10.462Z,15.06
2017-10-11T05:02:11.160Z,15.17
2017-10-11T05:03:11.074Z,15.17
2017-10-11T05:04:11.063Z,15.1
2017-10-11T05:05:10.715Z,15.06
2017-10-11T05:06:11.074Z,15.04
2017-10-11T05:07:10.993Z,15.02
2017-10-11T05:08:11.105Z,15.02
2017-10-11T05:09:10.633Z,15.12
2017-10-11T05:10:10.634Z,15.1
2017-10-11T05:11:10.602Z,15.09
2017-10-11T05:12:10.907Z,15.1
2017-10-11T05:13:10.893Z,15.07
2017-10-11T05:14:10.922Z,15.06
2017-10-11T05:15:10.853Z,15.09
2017-10-11T05:16:10.848Z,15.02
2017-10-11T05:17:10.913Z,15.03
2017-10-11T05:18:10.793Z,15.12
2017-10-11T05:19:10.133Z,15.14
2017-10-11T05:20:10.823Z,15.12
2017-10-11T05:21:10.786Z,15.17
2017-10-11T05:22:10.733Z,15.12
2017-10-11T05:23:10.382Z,15.1
2017-10-11T05:24:10.353Z,15.14
2017-10-11T05:25:10.673Z,15.13
2017-10-11T05:26:10.751Z,15.09
2017-10-11T05:27:10.325Z,15.13
2017-10-11T05:28:09.962Z,15.06
2017-10-11T05:29:10.269Z,15.07
2017-10-11T05:30:10.247Z,15.04
2017-10-11T05:31:10.234Z,15.03
2017-10-11T05:32:10.224Z,15.06
2017-10-11T05:33:10.190Z,15.02
2017-10-11T05:34:10.183Z,15.02
2017-10-11T05:35:10.479Z,15.04
2017-10-11T05:36:09.814Z,14.98
2017-10-11T05:37:10.443Z,15.04
2017-10-11T05:38:10.102Z,15.04
2017-10-11T05:39:10.411Z,15.04
2017-10-11T05:40:09.750Z,15.04
2017-10-11T05:41:10.476Z,15.02
2017-10-11T05:42:10.042Z,14.91
2017-10-11T05:43:10.029Z,15.06
2017-10-11T05:44:10.343Z,15.14
2017-10-11T05:45:09.642Z,15.13
2017-10-11T05:46:10.271Z,15.14
2017-10-11T05:47:10.252Z,15.07
2017-10-11T05:48:10.234Z,15.13
2017-10-11T05:49:10.229Z,15.12
2017-10-11T05:50:09.874Z,15.02
2017-10-11T05:51:10.181Z,15.07
2017-10-11T05:52:10.183Z,15.02
2017-10-11T05:53:10.142Z,14.95
2017-10-11T05:54:10.128Z,15
2017-10-11T05:55:09.780Z,15.03
2017-10-11T05:56:09.761Z,15
2017-10-11T05:57:09.752Z,14.94
2017-10-11T05:58:09.408Z,15
2017-10-11T05:59:09.712Z,14.92
2017-10-11T06:00:10.027Z,14.94
2017-10-11T06:01:09.994Z,14.92
2017-10-11T06:02:09.663Z,15.07
2017-10-11T06:03:09.640Z,15.2
2017-10-11T06:04:09.615Z,15.06
2017-10-11T06:05:09.924Z,15.09
2017-10-11T06:06:09.893Z,15.13
2017-10-11T06:07:09.554Z,15
2017-10-11T06:08:09.873Z,15.17
2017-10-11T06:09:09.525Z,15.13
2017-10-11T06:10:09.502Z,15.09
2017-10-11T06:11:09.824Z,15.14
2017-10-11T06:12:09.802Z,15.2
2017-10-11T06:13:09.762Z,15.16
2017-10-11T06:14:09.476Z,15.2
2017-10-11T06:15:09.742Z,15.17
2017-10-11T06:16:09.392Z,15.17
2017-10-11T06:17:09.702Z,15.2
2017-10-11T06:18:09.685Z,15.25
2017-10-11T06:19:09.005Z,15.27
2017-10-11T06:20:09.316Z,15.27
2017-10-11T06:21:09.644Z,15.25
2017-10-11T06:22:09.611Z,15.21
2017-10-11T06:23:09.624Z,15.31
2017-10-11T06:24:09.573Z,15.21
2017-10-11T06:25:09.543Z,15.22
2017-10-11T06:26:09.546Z,15.22
2017-10-11T06:27:09.502Z,15.21
2017-10-11T06:28:09.185Z,15.22
2017-10-11T06:29:09.154Z,15.2
2017-10-11T06:30:09.473Z,15.2
2017-10-11T06:31:09.461Z,15.22
2017-10-11T06:32:09.433Z,15.31
2017-10-11T06:33:09.401Z,15.31
2017-10-11T06:34:09.415Z,15.29
2017-10-11T06:35:09.384Z,15.25
2017-10-11T06:36:09.022Z,15.28
2017-10-11T06:37:09.331Z,15.31
2017-10-11T06:38:09.316Z,15.31
2017-10-11T06:39:09.294Z,15.21
2017-10-11T06:40:08.632Z,15.22
2017-10-11T06:41:08.949Z,15.29
2017-10-11T06:42:08.974Z,15.31
2017-10-11T06:43:09.250Z,15.27
2017-10-11T06:44:09.191Z,15.24
2017-10-11T06:45:08.854Z,15.31
2017-10-11T06:46:09.182Z,15.29
2017-10-11T06:47:09.159Z,15.25
2017-10-11T06:48:09.133Z,15.32
2017-10-11T06:49:09.110Z,15.34
2017-10-11T06:50:08.760Z,15.32
2017-10-11T06:51:09.107Z,15.34
2017-10-11T06:52:09.062Z,15.37
2017-10-11T06:53:09.112Z,15.25
2017-10-11T06:54:09.032Z,15.16
2017-10-11T06:55:08.672Z,15.16
2017-10-11T06:56:08.651Z,15.16
2017-10-11T06:57:08.965Z,15.17
2017-10-11T06:58:08.301Z,15.2
2017-10-11T06:59:08.621Z,15.32
2017-10-11T07:00:08.932Z,15.21
2017-10-11T07:01:08.901Z,15.25
2017-10-11T07:02:08.888Z,15.39
2017-10-11T07:03:08.532Z,15.31
2017-10-11T07:04:08.509Z,15.24
2017-10-11T07:05:08.823Z,15.31
2017-10-11T07:06:08.473Z,15.44
2017-10-11T07:07:08.457Z,15.42
2017-10-11T07:08:08.777Z,15.43
2017-10-11T07:09:08.741Z,15.43
2017-10-11T07:10:08.732Z,15.49
2017-10-11T07:11:08.691Z,15.43
2017-10-11T07:12:08.692Z,15.47
2017-10-11T07:13:08.346Z,15.4
2017-10-11T07:14:08.351Z,15.32
2017-10-11T07:15:08.312Z,15.42
2017-10-11T07:16:08.292Z,15.39
2017-10-11T07:17:08.610Z,15.39
2017-10-11T07:18:08.621Z,15.43
2017-10-11T07:19:08.566Z,15.54
2017-10-11T07:20:08.555Z,15.49
2017-10-11T07:21:08.202Z,15.58
2017-10-11T07:22:08.176Z,15.46
2017-10-11T07:23:08.151Z,15.43
2017-10-11T07:24:08.474Z,15.5
2017-10-11T07:25:08.132Z,15.53
2017-10-11T07:26:08.151Z,15.4
2017-10-11T07:27:08.079Z,15.43
2017-10-11T07:28:08.425Z,15.42
2017-10-11T07:29:08.380Z,15.47
2017-10-11T07:30:08.024Z,15.53
2017-10-11T07:31:08.343Z,15.52
2017-10-11T07:32:08.311Z,15.53
2017-10-11T07:33:08.291Z,15.42
2017-10-11T07:34:08.272Z,15.54
2017-10-11T07:35:07.614Z,15.47
2017-10-11T07:36:08.553Z,15.58
2017-10-11T07:37:07.899Z,15.53
2017-10-11T07:38:08.259Z,15.49
2017-10-11T07:39:07.860Z,15.6
2017-10-11T07:40:08.171Z,15.54
2017-10-11T07:41:07.830Z,15.58
2017-10-11T07:42:08.166Z,15.6
2017-10-11T07:43:07.803Z,15.54
2017-10-11T07:44:07.774Z,15.58
2017-10-11T07:45:08.082Z,15.49
2017-10-11T07:46:08.065Z,15.6
2017-10-11T07:47:08.034Z,15.64
2017-10-11T07:48:07.715Z,15.69
2017-10-11T07:49:08.011Z,15.69
2017-10-11T07:50:07.669Z,15.53
2017-10-11T07:51:07.643Z,15.65
2017-10-11T07:52:07.633Z,15.76
2017-10-11T07:53:07.613Z,15.76
2017-10-11T07:54:07.590Z,15.75
2017-10-11T07:55:07.577Z,15.79
2017-10-11T07:56:07.878Z,15.76
2017-10-11T07:57:07.534Z,15.77
2017-10-11T07:58:07.530Z,15.75
2017-10-11T07:59:07.843Z,15.72
2017-10-11T08:00:07.480Z,15.76
2017-10-11T08:01:07.781Z,15.79
2017-10-11T08:02:07.773Z,15.89
2017-10-11T08:03:07.751Z,15.76
2017-10-11T08:04:07.744Z,15.77
2017-10-11T08:05:07.711Z,15.72
2017-10-11T08:06:07.386Z,15.77
2017-10-11T08:07:07.681Z,15.82
2017-10-11T08:08:07.672Z,15.77
2017-10-11T08:09:07.332Z,15.79
2017-10-11T08:10:06.975Z,15.89
2017-10-11T08:11:07.279Z,15.86
2017-10-11T08:12:07.304Z,15.79
2017-10-11T08:13:07.251Z,15.82
2017-10-11T08:14:07.235Z,15.8
2017-10-11T08:15:07.575Z,15.9
2017-10-11T08:16:06.872Z,15.97
2017-10-11T08:17:07.501Z,15.87
2017-10-11T08:18:07.172Z,15.89
2017-10-11T08:19:07.145Z,15.89
2017-10-11T08:20:07.129Z,16.01
2017-10-11T08:21:07.135Z,15.9
2017-10-11T08:22:07.442Z,15.97
2017-10-11T08:23:07.390Z,16.01
2017-10-11T08:24:07.062Z,16.02
2017-10-11T08:25:07.376Z,16.1
2017-10-11T08:26:07.392Z,16.05
2017-10-11T08:27:07.340Z,15.97
2017-10-11T08:28:07.302Z,15.98
2017-10-11T08:29:06.980Z,15.98
2017-10-11T08:30:07.269Z,16.04
2017-10-11T08:31:07.273Z,16.05
2017-10-11T08:32:07.247Z,16.05
2017-10-11T08:33:06.902Z,16.16
2017-10-11T08:34:07.210Z,16.02
2017-10-11T08:35:07.184Z,16.1
2017-10-11T08:36:07.185Z,16.05
2017-10-11T08:37:07.155Z,16.04
2017-10-11T08:38:07.146Z,16.02
2017-10-11T08:39:07.129Z,16.04
2017-10-11T08:40:07.113Z,16.15
2017-10-11T08:41:07.088Z,16.08
2017-10-11T08:42:07.084Z,16.12
2017-10-11T08:43:07.051Z,16.07
2017-10-11T08:44:06.711Z,16.05
2017-10-11T08:45:06.672Z,16.02
2017-10-11T08:46:06.680Z,16.13
2017-10-11T08:47:06.982Z,16.21
2017-10-11T08:48:06.954Z,16.21
2017-10-11T08:49:06.619Z,16.17
2017-10-11T08:50:06.920Z,16.02
2017-10-11T08:51:06.890Z,16.04
2017-10-11T08:52:06.635Z,15.9
2017-10-11T08:53:06.866Z,15.92
2017-10-11T08:54:06.842Z,16.01
2017-10-11T08:55:06.185Z,16.01
2017-10-11T08:56:06.481Z,15.94
2017-10-11T08:57:06.805Z,16.07
2017-10-11T08:58:06.791Z,16.13
2017-10-11T08:59:06.763Z,16.04
2017-10-11T09:00:06.742Z,16.05
2017-10-11T09:01:06.721Z,16.2
2017-10-11T09:02:06.693Z,16.21
2017-10-11T09:03:06.693Z,16.24
2017-10-11T09:04:06.672Z,16.26
2017-10-11T09:05:06.655Z,16.28
2017-10-11T09:06:06.632Z,16.24
2017-10-11T09:07:06.623Z,16.15
2017-10-11T09:08:06.319Z,16.16
2017-10-11T09:09:06.591Z,16.16
2017-10-11T09:10:06.568Z,16.26
2017-10-11T09:11:06.272Z,16.2
2017-10-11T09:12:06.542Z,16.21
2017-10-11T09:13:06.532Z,16.12
2017-10-11T09:14:06.500Z,16.23
2017-10-11T09:15:06.494Z,16.24
2017-10-11T09:16:06.141Z,16.38
2017-10-11T09:17:06.125Z,16.26
2017-10-11T09:18:06.105Z,16.28
2017-10-11T09:19:06.090Z,16.35
2017-10-11T09:20:06.064Z,16.38
2017-10-11T09:21:06.045Z,16.34
2017-10-11T09:22:06.362Z,16.36
2017-10-11T09:23:06.014Z,16.32
2017-10-11T09:24:06.332Z,16.32
2017-10-11T09:25:06.299Z,16.36
2017-10-11T09:26:05.951Z,16.46
2017-10-11T09:27:05.945Z,16.51
2017-10-11T09:28:05.933Z,16.58
2017-10-11T09:29:05.902Z,16.61
2017-10-11T09:30:06.228Z,16.69
2017-10-11T09:31:06.193Z,16.74
2017-10-11T09:32:06.181Z,16.72
2017-10-11T09:33:06.162Z,16.74
2017-10-11T09:34:06.144Z,16.66
2017-10-11T09:35:05.803Z,16.61
2017-10-11T09:36:06.052Z,16.6
2017-10-11T09:37:05.761Z,16.46
2017-10-11T09:38:06.073Z,16.43
2017-10-11T09:39:06.071Z,16.48
2017-10-11T09:40:06.084Z,16.46
2017-10-11T09:41:05.701Z,16.51
2017-10-11T09:42:05.361Z,16.42
2017-10-11T09:43:05.986Z,16.56
2017-10-11T09:44:05.638Z,16.53
2017-10-11T09:45:05.308Z,16.68
2017-10-11T09:46:05.624Z,16.58
2017-10-11T09:47:05.942Z,16.53
2017-10-11T09:48:05.912Z,16.63
2017-10-11T09:49:05.883Z,16.54
2017-10-11T09:50:05.558Z,16.58
2017-10-11T09:51:05.643Z,16.61
2017-10-11T09:52:05.514Z,16.56
2017-10-11T09:53:05.962Z,16.54
2017-10-11T09:54:05.822Z,16.58
2017-10-11T09:55:05.783Z,16.54
2017-10-11T09:56:05.431Z,16.45
2017-10-11T09:57:05.780Z,16.46
2017-10-11T09:58:05.402Z,16.46
2017-10-11T09:59:05.719Z,16.46
2017-10-11T10:00:05.720Z,16.45
2017-10-11T10:01:05.672Z,16.23
2017-10-11T10:02:05.684Z,16.31
2017-10-11T10:03:05.662Z,16.34
2017-10-11T10:04:05.303Z,16.36
2017-10-11T10:05:05.301Z,16.26
2017-10-11T10:06:05.744Z,16.34
2017-10-11T10:07:05.596Z,16.28
2017-10-11T10:08:05.683Z,16.34
2017-10-11T10:09:05.225Z,16.27
2017-10-11T10:10:05.542Z,16.2
2017-10-11T10:11:05.636Z,16.31
2017-10-11T10:12:05.503Z,16.31
2017-10-11T10:13:05.141Z,16.31
2017-10-11T10:14:05.523Z,16.23
2017-10-11T10:15:04.812Z,16.17
2017-10-11T10:16:05.416Z,16.21
2017-10-11T10:17:05.403Z,16.13
2017-10-11T10:18:05.410Z,16.26
2017-10-11T10:19:05.447Z,16.23
2017-10-11T10:20:05.021Z,16.31
2017-10-11T10:21:05.463Z,16.32
2017-10-11T10:22:04.998Z,16.38
2017-10-11T10:23:04.965Z,16.27
2017-10-11T10:24:05.283Z,16.31
2017-10-11T10:25:04.936Z,16.31
2017-10-11T10:26:05.252Z,16.26
2017-10-11T10:27:04.991Z,16.38
2017-10-11T10:28:04.884Z,16.41
2017-10-11T10:29:05.190Z,16.28
2017-10-11T10:30:05.183Z,16.31
2017-10-11T10:31:05.301Z,16.24
2017-10-11T10:32:05.214Z,16.27
2017-10-11T10:33:04.792Z,16.31
2017-10-11T10:34:04.455Z,16.31
2017-10-11T10:35:04.776Z,16.38
2017-10-11T10:36:04.745Z,16.26
2017-10-11T10:37:05.092Z,16.28
2017-10-11T10:38:05.102Z,16.36
2017-10-11T10:39:04.681Z,16.21
2017-10-11T10:40:05.042Z,16.24
2017-10-11T10:41:05.033Z,16.31
2017-10-11T10:42:05.043Z,16.27
2017-10-11T10:43:04.951Z,16.32
2017-10-11T10:44:04.972Z,16.24
2017-10-11T10:45:04.974Z,16.34
2017-10-11T10:46:04.575Z,16.24
2017-10-11T10:47:04.540Z,16.24
2017-10-11T10:48:04.892Z,16.17
2017-10-11T10:49:04.905Z,16.23
2017-10-11T10:50:04.173Z,16.16
2017-10-11T10:51:04.893Z,16.23
2017-10-11T10:52:04.786Z,16.12
2017-10-11T10:53:04.825Z,16.31
2017-10-11T10:54:04.753Z,16.31
2017-10-11T10:55:04.773Z,16.28
2017-10-11T10:56:04.437Z,16.45
2017-10-11T10:57:04.703Z,16.45
2017-10-11T10:58:04.352Z,16.63
2017-10-11T10:59:04.355Z,16.63
2017-10-11T11:00:04.338Z,16.76
2017-10-11T11:01:04.319Z,16.83
2017-10-11T11:02:04.282Z,16.9
2017-10-11T11:03:04.266Z,17.08
2017-10-11T11:04:04.598Z,17.09
2017-10-11T11:05:04.541Z,17.11
2017-10-11T11:06:04.536Z,17.19
2017-10-11T11:07:04.200Z,17.15
2017-10-11T11:08:04.515Z,17.3
2017-10-11T11:09:04.483Z,17.4
2017-10-11T11:10:04.468Z,17.44
2017-10-11T11:11:04.453Z,17.44
2017-10-11T11:12:04.420Z,17.44
2017-10-11T11:13:04.420Z,17.7
2017-10-11T11:14:04.411Z,17.85
2017-10-11T11:15:04.402Z,17.82
2017-10-11T11:16:04.044Z,17.82
2017-10-11T11:17:04.351Z,17.93
2017-10-11T11:18:04.343Z,17.95
2017-10-11T11:19:04.313Z,17.86
2017-10-11T11:20:04.301Z,17.87
2017-10-11T11:21:04.324Z,17.89
2017-10-11T11:22:04.280Z,17.87
2017-10-11T11:23:04.315Z,17.9
2017-10-11T11:24:03.915Z,17.67
2017-10-11T11:25:03.900Z,17.7
2017-10-11T11:26:04.211Z,17.52
2017-10-11T11:27:04.185Z,17.45
2017-10-11T11:28:03.535Z,17.34
2017-10-11T11:29:04.176Z,17.33
2017-10-11T11:30:04.152Z,17.15
2017-10-11T11:31:04.152Z,17.24
2017-10-11T11:32:03.796Z,17.15
2017-10-11T11:33:03.780Z,17.16
2017-10-11T11:34:03.762Z,17.16
2017-10-11T11:35:03.733Z,17.24
2017-10-11T11:36:03.712Z,17.18
2017-10-11T11:37:03.709Z,17.19
2017-10-11T11:38:03.691Z,17.21
2017-10-11T11:39:03.678Z,17.33
2017-10-11T11:40:03.972Z,17.45
2017-10-11T11:41:03.960Z,17.4
2017-10-11T11:42:03.941Z,17.46
2017-10-11T11:43:03.922Z,17.15
2017-10-11T11:44:03.597Z,17.15
2017-10-11T11:45:03.572Z,17.15
2017-10-11T11:46:03.890Z,17.16
2017-10-11T11:47:03.882Z,17.22
2017-10-11T11:48:03.522Z,17.03
2017-10-11T11:49:03.834Z,16.91
2017-10-11T11:50:03.870Z,16.9
2017-10-11T11:51:03.471Z,16.94
2017-10-11T11:52:03.458Z,16.93
2017-10-11T11:53:03.776Z,16.93
2017-10-11T11:54:03.772Z,16.97
2017-10-11T11:55:03.400Z,17.11
2017-10-11T11:56:03.716Z,17
2017-10-11T11:57:03.397Z,16.94
2017-10-11T11:58:03.682Z,17.01
2017-10-11T11:59:03.668Z,16.94
2017-10-11T12:00:03.655Z,16.81
2017-10-11T12:01:03.613Z,16.82
2017-10-11T12:02:03.294Z,16.71
2017-10-11T12:03:03.591Z,16.72
2017-10-11T12:04:03.294Z,16.76
2017-10-11T12:05:03.555Z,16.71
2017-10-11T12:06:03.556Z,16.58
2017-10-11T12:07:03.202Z,16.74
2017-10-11T12:08:03.512Z,16.64
2017-10-11T12:09:03.517Z,16.6
2017-10-11T12:10:03.465Z,16.57
2017-10-11T12:11:03.204Z,16.56
2017-10-11T12:12:03.446Z,16.6
2017-10-11T12:13:03.096Z,16.54
2017-10-11T12:14:03.412Z,16.45
2017-10-11T12:15:03.393Z,16.38
2017-10-11T12:16:03.401Z,16.43
2017-10-11T12:17:03.354Z,16.46
2017-10-11T12:18:03.332Z,16.46
2017-10-11T12:19:03.000Z,16.56
2017-10-11T12:20:03.330Z,16.41
2017-10-11T12:21:03.270Z,16.35
2017-10-11T12:22:03.268Z,16.42
2017-10-11T12:23:02.921Z,16.46
2017-10-11T12:24:03.221Z,16.46
2017-10-11T12:25:03.229Z,16.36
2017-10-11T12:26:03.196Z,16.42
2017-10-11T12:27:02.541Z,16.45
2017-10-11T12:28:02.828Z,16.57
2017-10-11T12:29:02.821Z,16.45
2017-10-11T12:30:02.805Z,16.36
2017-10-11T12:31:02.458Z,16.39
2017-10-11T12:32:03.092Z,16.41
2017-10-11T12:33:03.063Z,16.54
2017-10-11T12:34:03.063Z,16.63
2017-10-11T12:35:03.032Z,16.48
2017-10-11T12:36:03.026Z,16.57
2017-10-11T12:37:03.003Z,16.58
2017-10-11T12:38:02.664Z,16.72
2017-10-11T12:39:02.972Z,16.66
2017-10-11T12:40:02.930Z,16.69
2017-10-11T12:41:02.921Z,16.82
2017-10-11T12:42:02.582Z,16.68
2017-10-11T12:43:02.571Z,16.82
2017-10-11T12:44:02.555Z,16.9
2017-10-11T12:45:02.865Z,16.94
2017-10-11T12:46:02.842Z,16.96
2017-10-11T12:47:02.853Z,16.97
2017-10-11T12:48:02.816Z,17.03
2017-10-11T12:49:02.792Z,17
2017-10-11T12:50:02.762Z,16.85
2017-10-11T12:51:02.761Z,16.87
2017-10-11T12:52:02.733Z,17.06
2017-10-11T12:53:02.731Z,17.05
2017-10-11T12:54:02.704Z,17.12
2017-10-11T12:55:02.703Z,17.11